Time;durP1;ratioP1;P1;durP2;ratioP2;P2;SDS_P1;SDS_P2;PMS_P1;PMS_P2;Temp;Humidity;BMP_temperature;BMP_pressure;BME280_temperature;BME280_humidity;BME280_pressure;Samples;Min_cycle;Max_cycle;Signal;HPM_P1;HPM_P2
2022/07/05 00:00:26;;;;;;;4.20;2.73;;;16.60;95.90;;;;;;5051751;28;20563;-64
2022/07/05 00:02:53;;;;;;;4.90;2.70;;;16.60;96.00;;;;;;5050995;28;20548;-63
2022/07/05 00:05:20;;;;;;;7.07;3.20;;;16.50;96.20;;;;;;5052585;28;20487;-65
2022/07/05 00:07:49;;;;;;;5.23;2.57;;;16.50;96.40;;;;;;5051629;28;20480;-64
2022/07/05 00:10:16;;;;;;;6.37;2.90;;;16.40;96.60;;;;;;5052334;28;20500;-64
2022/07/05 00:12:44;;;;;;;3.40;2.60;;;16.40;96.80;;;;;;5050813;28;20471;-65
2022/07/05 00:15:11;;;;;;;5.70;3.50;;;16.40;96.90;;;;;;5052488;28;20579;-64
2022/07/05 00:17:39;;;;;;;8.13;2.40;;;16.30;97.10;;;;;;5052612;28;20529;-64
2022/07/05 00:20:07;;;;;;;5.00;2.67;;;16.30;97.30;;;;;;5053303;28;20460;-64
2022/07/05 00:22:34;;;;;;;7.37;2.53;;;16.30;97.30;;;;;;5052772;28;20510;-64
2022/07/05 00:25:03;;;;;;;6.57;3.27;;;16.20;97.40;;;;;;5054275;28;20444;-64
2022/07/05 00:27:30;;;;;;;7.70;2.70;;;16.20;97.50;;;;;;5054097;28;20545;-64
2022/07/05 00:29:58;;;;;;;3.47;2.57;;;16.20;97.60;;;;;;5053007;28;20491;-64
2022/07/05 00:32:25;;;;;;;9.33;2.73;;;16.10;97.70;;;;;;5064569;28;20855;-64
2022/07/05 00:34:52;;;;;;;3.53;2.60;;;16.10;97.80;;;;;;5056805;28;20894;-64
2022/07/05 00:37:20;;;;;;;6.00;2.93;;;16.10;97.90;;;;;;5056427;28;20537;-64
2022/07/05 00:39:47;;;;;;;7.10;3.10;;;16.00;98.00;;;;;;5056795;28;20902;-65
2022/07/05 00:42:16;;;;;;;5.70;2.70;;;16.00;98.20;;;;;;5056066;28;20468;-64
2022/07/05 00:44:43;;;;;;;4.90;2.30;;;16.00;98.40;;;;;;5056294;28;20483;-64
2022/07/05 00:47:13;;;;;;;7.17;3.37;;;15.90;98.50;;;;;;5056227;28;20505;-64
2022/07/05 00:49:41;;;;;;;5.07;2.63;;;15.90;98.60;;;;;;5055354;28;20459;-64
2022/07/05 00:52:09;;;;;;;6.27;2.70;;;15.90;98.70;;;;;;5056178;28;20952;-64
2022/07/05 00:54:38;;;;;;;4.17;3.10;;;15.90;98.80;;;;;;5057035;28;20537;-64
2022/07/05 00:57:06;;;;;;;8.50;3.40;;;15.80;98.70;;;;;;5055144;28;20491;-64
2022/07/05 00:59:35;;;;;;;4.47;3.80;;;15.80;98.90;;;;;;5055106;28;21047;-64
2022/07/05 01:02:03;;;;;;;3.73;2.80;;;15.80;99.10;;;;;;5055930;28;20947;-65
2022/07/05 01:04:30;;;;;;;4.93;3.27;;;15.80;99.20;;;;;;5055865;28;20464;-64
2022/07/05 01:06:58;;;;;;;4.10;2.80;;;15.80;99.30;;;;;;5055891;28;20477;-63
2022/07/05 01:09:25;;;;;;;5.83;3.10;;;15.80;99.30;;;;;;5056103;28;20459;-64
2022/07/05 01:11:54;;;;;;;6.53;2.97;;;15.70;99.30;;;;;;5055050;28;21086;-63
2022/07/05 01:14:23;;;;;;;3.80;2.60;;;15.70;99.50;;;;;;5055961;28;20492;-63
2022/07/05 01:16:54;;;;;;;6.90;3.30;;;15.60;99.60;;;;;;5055402;28;20601;-64
2022/07/05 01:19:23;;;;;;;3.00;2.50;;;15.70;99.80;;;;;;5055708;28;20463;-64
2022/07/05 01:21:51;;;;;;;4.33;2.80;;;15.60;99.80;;;;;;5056386;28;20514;-64
2022/07/05 01:24:21;;;;;;;5.23;3.27;;;15.60;99.90;;;;;;5054218;28;20456;-64
2022/07/05 01:26:50;;;;;;;4.90;3.13;;;15.60;99.90;;;;;;5039441;28;20486;-64
2022/07/05 01:29:18;;;;;;;7.40;3.13;;;15.60;99.90;;;;;;5056431;28;20460;-63
2022/07/05 01:31:46;;;;;;;4.83;2.73;;;15.60;99.90;;;;;;5056789;28;20468;-64
2022/07/05 01:34:13;;;;;;;4.70;3.30;;;15.60;99.90;;;;;;5058313;28;20460;-64
2022/07/05 01:36:41;;;;;;;6.23;3.07;;;15.60;99.90;;;;;;5057304;28;20994;-63
2022/07/05 01:39:09;;;;;;;7.67;4.97;;;15.60;99.90;;;;;;5057527;28;20501;-63
2022/07/05 01:41:37;;;;;;;5.60;4.03;;;15.60;99.90;;;;;;5056907;28;20444;-64
2022/07/05 01:44:06;;;;;;;6.20;3.20;;;15.60;99.90;;;;;;5056058;28;20545;-64
2022/07/05 01:46:37;;;;;;;5.40;3.20;;;15.60;99.90;;;;;;5056263;28;20476;-62
2022/07/05 01:49:06;;;;;;;4.03;3.10;;;15.60;99.90;;;;;;5057321;28;20500;-63
2022/07/05 01:51:39;;;;;;;7.00;3.53;;;15.50;99.90;;;;;;5055436;28;20477;-64
2022/07/05 01:54:06;;;;;;;4.67;3.70;;;15.50;99.90;;;;;;5055933;28;20456;-63
2022/07/05 01:56:34;;;;;;;4.73;3.40;;;15.50;99.90;;;;;;5056398;28;20487;-63
2022/07/05 01:59:02;;;;;;;7.83;3.30;;;15.50;99.90;;;;;;5056677;28;20460;-65
2022/07/05 02:01:34;;;;;;;4.43;3.23;;;15.40;99.90;;;;;;5054788;28;20468;-64
2022/07/05 02:04:03;;;;;;;3.50;3.20;;;15.40;99.90;;;;;;5047436;28;20464;-64
2022/07/05 02:06:33;;;;;;;5.37;3.60;;;15.40;99.90;;;;;;5054015;28;20475;-64
2022/07/05 02:09:00;;;;;;;4.17;3.20;;;15.40;99.90;;;;;;5051730;28;20563;-64
2022/07/05 02:11:28;;;;;;;7.07;3.27;;;15.30;99.90;;;;;;5054516;28;20456;-64
2022/07/05 02:13:55;;;;;;;5.40;3.33;;;15.30;99.90;;;;;;5054413;28;20468;-64
2022/07/05 02:16:28;;;;;;;4.60;3.10;;;15.30;99.90;;;;;;5053789;28;20570;-63
2022/07/05 02:18:56;;;;;;;6.43;3.33;;;15.20;99.90;;;;;;5053538;28;20951;-64
2022/07/05 02:21:23;;;;;;;4.57;3.57;;;15.20;99.90;;;;;;5053923;28;20932;-64
2022/07/05 02:23:51;;;;;;;4.93;3.33;;;15.20;99.90;;;;;;5055042;28;20812;-64
2022/07/05 02:26:18;;;;;;;8.97;4.07;;;15.20;99.90;;;;;;5036054;28;20487;-64
2022/07/05 02:28:46;;;;;;;7.57;4.33;;;15.20;99.90;;;;;;5053430;28;20460;-64
2022/07/05 02:31:13;;;;;;;7.20;4.27;;;15.20;99.90;;;;;;5054502;28;20448;-63
2022/07/05 02:33:42;;;;;;;5.93;3.83;;;15.10;99.90;;;;;;5052819;28;20456;-63
2022/07/05 02:36:12;;;;;;;6.80;4.20;;;15.10;99.90;;;;;;5052780;28;20484;-64
2022/07/05 02:38:40;;;;;;;5.80;3.60;;;15.10;99.90;;;;;;5053125;28;20456;-64
2022/07/05 02:41:09;;;;;;;5.20;3.80;;;15.00;99.90;;;;;;5054531;28;20448;-65
2022/07/05 02:43:36;;;;;;;4.20;3.67;;;15.10;99.90;;;;;;5054000;28;20487;-64
2022/07/05 02:46:05;;;;;;;9.23;4.10;;;15.00;99.90;;;;;;5054974;28;20476;-65
2022/07/05 02:48:33;;;;;;;4.03;3.73;;;15.00;99.90;;;;;;5051798;28;20529;-64
2022/07/05 02:51:02;;;;;;;5.37;3.50;;;15.00;99.90;;;;;;5054053;28;20518;-65
2022/07/05 02:53:30;;;;;;;6.83;3.67;;;15.00;99.90;;;;;;5053358;28;20509;-64
2022/07/05 02:55:58;;;;;;;6.87;4.47;;;15.00;99.90;;;;;;5054066;28;21007;-64
2022/07/05 02:58:25;;;;;;;5.83;4.43;;;14.90;99.90;;;;;;5052869;28;20472;-63
2022/07/05 03:00:52;;;;;;;7.83;4.63;;;14.90;99.90;;;;;;5052721;28;20487;-64
2022/07/05 03:03:20;;;;;;;18.93;5.10;;;14.90;99.90;;;;;;5053625;28;20456;-63
2022/07/05 03:05:47;;;;;;;6.70;4.50;;;14.90;99.90;;;;;;5051985;28;20487;-65
2022/07/05 03:08:16;;;;;;;4.30;3.90;;;15.00;99.90;;;;;;5053483;28;20883;-65
2022/07/05 03:10:43;;;;;;;9.10;4.30;;;15.00;99.90;;;;;;5053834;28;20865;-64
2022/07/05 03:13:10;;;;;;;4.73;4.33;;;15.10;99.90;;;;;;5053289;28;20551;-64
2022/07/05 03:15:38;;;;;;;8.03;4.30;;;15.10;99.90;;;;;;5054407;28;20512;-64
2022/07/05 03:18:05;;;;;;;5.93;4.30;;;15.20;99.90;;;;;;5050568;28;20468;-64
2022/07/05 03:20:33;;;;;;;8.80;4.80;;;15.20;99.90;;;;;;5051299;28;21015;-64
2022/07/05 03:23:00;;;;;;;6.20;4.50;;;15.10;99.90;;;;;;5053412;28;20554;-64
2022/07/05 03:25:29;;;;;;;6.23;5.63;;;15.10;99.90;;;;;;5054713;28;20444;-64
2022/07/05 03:27:56;;;;;;;6.57;5.87;;;15.10;99.90;;;;;;5053208;28;21017;-64
2022/07/05 03:30:23;;;;;;;8.70;4.70;;;15.10;99.90;;;;;;5052087;28;20506;-64
2022/07/05 03:32:50;;;;;;;8.73;4.87;;;15.10;99.90;;;;;;5051991;28;20472;-64
2022/07/05 03:35:18;;;;;;;7.53;5.33;;;15.20;99.90;;;;;;5051155;28;20511;-64
2022/07/05 03:37:45;;;;;;;6.10;5.30;;;15.20;99.90;;;;;;5051624;28;20574;-64
2022/07/05 03:40:12;;;;;;;5.30;4.20;;;15.20;99.90;;;;;;5051639;28;20551;-64
2022/07/05 03:42:41;;;;;;;6.37;4.57;;;15.30;99.90;;;;;;5051614;28;21031;-64
2022/07/05 03:45:10;;;;;;;6.63;5.20;;;15.30;99.90;;;;;;5037117;28;20455;-64
2022/07/05 03:47:37;;;;;;;4.87;4.37;;;15.30;99.90;;;;;;5051888;28;20538;-64
2022/07/05 03:50:05;;;;;;;6.10;5.00;;;15.40;99.90;;;;;;5052296;28;20509;-64
2022/07/05 03:52:32;;;;;;;7.10;4.43;;;15.40;99.90;;;;;;5051166;28;21122;-64
2022/07/05 03:55:00;;;;;;;10.07;4.90;;;15.40;99.90;;;;;;5052276;28;20875;-64
2022/07/05 03:57:27;;;;;;;9.30;5.50;;;15.50;99.90;;;;;;5051757;28;20492;-65
2022/07/05 03:59:56;;;;;;;5.83;4.93;;;15.50;99.90;;;;;;5051769;28;20503;-63
2022/07/05 04:02:23;;;;;;;7.53;5.47;;;15.60;99.90;;;;;;5051042;28;20467;-63
2022/07/05 04:04:50;;;;;;;5.90;4.87;;;15.70;99.90;;;;;;5050990;28;20471;-64
2022/07/05 04:09:57;;;;;;;7.90;4.50;;;15.90;99.90;;;;;;5111709;27;20567;-63
2022/07/05 04:12:24;;;;;;;6.93;4.30;;;16.10;99.90;;;;;;5106040;28;20498;-63
2022/07/05 04:14:51;;;;;;;14.80;4.63;;;16.20;99.90;;;;;;5109994;28;20461;-64
2022/07/05 04:17:19;;;;;;;5.47;4.23;;;16.30;99.90;;;;;;5098790;28;20474;-64
2022/07/05 04:19:46;;;;;;;7.90;4.70;;;16.50;99.90;;;;;;5097565;28;20580;-64
2022/07/05 04:22:13;;;;;;;5.83;4.47;;;16.60;99.90;;;;;;5108616;28;20489;-64
2022/07/05 04:27:23;;;;;;;5.63;3.90;;;17.10;99.90;;;;;;5105410;28;20469;-64
2022/07/05 04:29:50;;;;;;;6.00;4.50;;;17.40;99.90;;;;;;5094292;28;20485;-64
2022/07/05 04:32:18;;;;;;;5.47;3.83;;;17.60;99.30;;;;;;5093389;28;20542;-64
2022/07/05 04:34:45;;;;;;;6.03;4.53;;;17.60;98.80;;;;;;5107878;28;20483;-64
2022/07/05 04:37:12;;;;;;;7.03;3.80;;;17.60;98.60;;;;;;5107812;28;20486;-65
2022/07/05 04:39:40;;;;;;;6.00;3.40;;;17.70;98.20;;;;;;5107274;28;20515;-66
2022/07/05 04:42:07;;;;;;;8.40;3.80;;;17.70;98.20;;;;;;5107980;28;20949;-64
2022/07/05 04:44:36;;;;;;;6.83;4.30;;;17.90;97.80;;;;;;5105975;28;20461;-62
2022/07/05 04:47:03;;;;;;;5.07;3.70;;;18.00;97.30;;;;;;5078063;28;20492;-64
2022/07/05 04:49:31;;;;;;;6.03;4.03;;;18.00;96.90;;;;;;5107913;28;20842;-64
2022/07/05 04:51:58;;;;;;;4.33;3.47;;;18.10;96.70;;;;;;5092987;28;20458;-63
2022/07/05 04:54:25;;;;;;;6.63;3.97;;;18.20;96.10;;;;;;5100983;28;20457;-63
2022/07/05 04:56:53;;;;;;;6.40;3.37;;;18.20;95.60;;;;;;5118433;22;20496;-61
2022/07/05 04:59:20;;;;;;;7.13;4.30;;;18.20;95.40;;;;;;5047093;28;20467;-62
2022/07/05 05:01:48;;;;;;;5.83;3.20;;;18.30;95.30;;;;;;5042940;28;20659;-60
2022/07/05 05:04:16;;;;;;;4.27;3.43;;;18.20;95.00;;;;;;5049182;28;20441;-61
2022/07/05 05:06:43;;;;;;;6.00;3.60;;;18.20;94.80;;;;;;5047665;28;20476;-60
2022/07/05 05:09:10;;;;;;;6.07;3.63;;;18.10;94.70;;;;;;5038005;28;21050;-61
2022/07/05 05:11:38;;;;;;;6.27;3.27;;;18.00;94.80;;;;;;5045304;28;20542;-60
2022/07/05 05:14:05;;;;;;;8.97;4.20;;;18.00;94.70;;;;;;5051217;28;20464;-62
2022/07/05 05:16:32;;;;;;;4.27;2.90;;;18.00;94.50;;;;;;5044344;28;20563;-62
2022/07/05 05:19:01;;;;;;;9.70;3.17;;;18.10;94.80;;;;;;5061846;28;20460;-62
2022/07/05 05:21:28;;;;;;;6.80;4.00;;;18.40;94.50;;;;;;5031489;28;20483;-62
2022/07/05 05:23:56;;;;;;;5.87;4.07;;;18.80;93.20;;;;;;5038075;28;20517;-59
2022/07/05 05:26:23;;;;;;;6.80;3.53;;;19.20;92.20;;;;;;5029783;28;21048;-63
2022/07/05 05:28:50;;;;;;;5.23;3.43;;;19.30;91.40;;;;;;5054820;28;20529;-62
2022/07/05 05:31:18;;;;;;;4.00;3.20;;;19.60;90.50;;;;;;5042550;28;20558;-61
2022/07/05 05:33:46;;;;;;;7.13;3.60;;;19.70;89.00;;;;;;5035987;28;20466;-61
2022/07/05 05:36:15;;;;;;;6.53;4.00;;;19.60;87.50;;;;;;5041205;28;20513;-62
2022/07/05 05:38:42;;;;;;;5.73;3.53;;;19.40;87.20;;;;;;5033330;28;20480;-61
2022/07/05 05:41:09;;;;;;;4.40;4.00;;;19.10;88.30;;;;;;5042843;28;20533;-61
2022/07/05 05:43:37;;;;;;;5.90;3.97;;;18.90;90.00;;;;;;5039684;28;20452;-60
2022/07/05 05:46:04;;;;;;;3.53;3.10;;;18.90;90.70;;;;;;5036866;28;20468;-62
2022/07/05 05:48:32;;;;;;;5.43;3.03;;;19.20;90.40;;;;;;5043691;28;20558;-61
2022/07/05 05:51:00;;;;;;;6.40;3.40;;;19.40;89.70;;;;;;5032375;28;21082;-62
2022/07/05 05:53:29;;;;;;;5.70;3.40;;;19.60;88.80;;;;;;5018498;28;20456;-63
2022/07/05 05:55:56;;;;;;;4.43;2.90;;;20.00;87.20;;;;;;5014925;28;20445;-62
2022/07/05 05:58:25;;;;;;;4.23;2.90;;;20.40;84.40;;;;;;5015988;28;20560;-62
2022/07/05 06:00:53;;;;;;;5.13;2.50;;;20.30;81.90;;;;;;5015772;28;20484;-61
2022/07/05 06:03:21;;;;;;;6.07;2.80;;;20.20;81.00;;;;;;5014861;28;20453;-62
2022/07/05 06:05:48;;;;;;;5.03;2.27;;;20.10;80.90;;;;;;5033267;28;20932;-62
2022/07/05 06:08:16;;;;;;;4.90;2.57;;;20.10;80.80;;;;;;5032277;28;20563;-63
2022/07/05 06:10:45;;;;;;;4.00;2.37;;;20.30;80.20;;;;;;5035457;28;20567;-61
2022/07/05 06:13:15;;;;;;;5.60;2.70;;;20.50;78.70;;;;;;5037930;28;20445;-64
2022/07/05 06:15:43;;;;;;;6.30;2.80;;;20.60;77.30;;;;;;5036805;28;20879;-61
2022/07/05 06:18:11;;;;;;;2.80;2.60;;;20.50;76.70;;;;;;5035215;28;20519;-61
2022/07/05 06:20:39;;;;;;;4.40;2.63;;;20.50;76.30;;;;;;5034769;28;20508;-61
2022/07/05 06:23:08;;;;;;;3.13;2.10;;;20.50;76.40;;;;;;5033503;28;20470;-65
2022/07/05 06:25:36;;;;;;;3.13;2.00;;;20.50;75.60;;;;;;5034182;28;20473;-62
2022/07/05 06:28:06;;;;;;;5.20;2.67;;;20.50;75.20;;;;;;5034619;28;20564;-63
2022/07/05 06:30:36;;;;;;;3.80;2.20;;;20.50;74.10;;;;;;5033966;28;20470;-63
2022/07/05 06:33:03;;;;;;;5.30;2.07;;;20.50;72.70;;;;;;5032923;28;20503;-61
2022/07/05 06:35:32;;;;;;;3.93;2.27;;;20.50;71.10;;;;;;5033741;28;20509;-61
2022/07/05 06:38:01;;;;;;;2.53;1.60;;;20.50;68.80;;;;;;5032647;28;20496;-63
2022/07/05 06:40:31;;;;;;;3.90;2.20;;;20.30;67.50;;;;;;5033143;28;20869;-62
2022/07/05 06:42:59;;;;;;;4.30;1.93;;;20.10;66.80;;;;;;5031838;28;20467;-61
2022/07/05 06:45:28;;;;;;;3.07;1.97;;;19.90;67.00;;;;;;5024278;28;20459;-62
2022/07/05 06:47:56;;;;;;;3.20;1.87;;;19.80;67.10;;;;;;5033906;28;20467;-62
2022/07/05 06:50:24;;;;;;;5.30;2.00;;;19.80;67.70;;;;;;5033930;28;20910;-62
2022/07/05 06:52:51;;;;;;;3.37;1.60;;;19.80;67.60;;;;;;5033548;28;20445;-62
2022/07/05 06:55:18;;;;;;;2.50;1.70;;;19.70;65.80;;;;;;5034122;28;20445;-62
2022/07/05 06:57:46;;;;;;;3.27;1.80;;;19.70;65.60;;;;;;5033310;28;20473;-62
2022/07/05 07:00:14;;;;;;;3.20;1.60;;;19.70;65.30;;;;;;5033548;28;20535;-62
2022/07/05 07:02:42;;;;;;;4.73;2.00;;;19.70;64.40;;;;;;5033589;28;20888;-62
2022/07/05 07:05:10;;;;;;;2.90;1.80;;;19.70;63.80;;;;;;5033440;28;20560;-63
2022/07/05 07:10:22;;;;;;;3.33;1.50;;;19.80;61.80;;;;;;5033847;28;20460;-63
2022/07/05 07:12:49;;;;;;;1.70;1.50;;;19.90;60.50;;;;;;5032986;28;20540;-61
2022/07/05 07:15:16;;;;;;;2.30;1.50;;;19.90;60.60;;;;;;5033456;28;20445;-61
2022/07/05 07:17:45;;;;;;;2.57;1.30;;;20.00;59.60;;;;;;5033485;28;20526;-62
2022/07/05 07:20:13;;;;;;;1.23;1.13;;;20.00;59.00;;;;;;5033513;28;20449;-61
2022/07/05 07:22:40;;;;;;;1.43;1.20;;;20.00;58.00;;;;;;5033358;28;20449;-63
2022/07/05 07:25:08;;;;;;;2.20;1.40;;;20.00;58.10;;;;;;5032983;28;20928;-62
2022/07/05 07:27:43;;;;;;;2.53;1.70;;;20.00;57.70;;;;;;5033261;28;20491;-62
2022/07/05 07:30:13;;;;;;;3.63;1.87;;;20.00;57.50;;;;;;5033071;28;20488;-62
2022/07/05 07:32:40;;;;;;;2.50;1.57;;;20.00;57.50;;;;;;5033040;28;20952;-62
2022/07/05 07:35:10;;;;;;;4.70;1.83;;;20.10;57.50;;;;;;5032946;28;20556;-62
2022/07/05 07:37:37;;;;;;;2.60;1.70;;;20.20;57.30;;;;;;5032690;28;20500;-62
2022/07/05 07:40:06;;;;;;;3.30;1.63;;;20.30;56.50;;;;;;5033113;28;20874;-61
2022/07/05 07:42:34;;;;;;;2.73;1.80;;;20.40;55.80;;;;;;5032755;28;20445;-61
2022/07/05 07:45:03;;;;;;;4.60;1.70;;;20.40;55.10;;;;;;5032844;28;20516;-62
2022/07/05 07:47:30;;;;;;;2.50;2.30;;;20.50;54.80;;;;;;5032766;28;20551;-62
2022/07/05 07:49:58;;;;;;;4.10;1.80;;;20.70;54.50;;;;;;5032460;28;20530;-63
2022/07/05 07:52:26;;;;;;;1.93;1.73;;;20.70;54.00;;;;;;5032586;28;20545;-63
2022/07/05 07:54:54;;;;;;;2.03;1.83;;;20.80;53.70;;;;;;5032633;28;20446;-61
2022/07/05 07:57:21;;;;;;;4.13;2.00;;;20.90;53.10;;;;;;5032473;28;20540;-63
2022/07/05 07:59:48;;;;;;;3.30;1.97;;;21.00;52.80;;;;;;5032700;28;20438;-63
2022/07/05 08:02:17;;;;;;;4.33;2.07;;;21.00;52.80;;;;;;5032665;28;20447;-62
2022/07/05 08:04:44;;;;;;;2.07;1.57;;;21.00;52.60;;;;;;5032304;28;20926;-62
2022/07/05 08:07:11;;;;;;;1.33;1.17;;;21.10;52.20;;;;;;5032554;28;21036;-62
2022/07/05 08:09:40;;;;;;;2.03;1.50;;;21.10;51.80;;;;;;5032979;28;20514;-61
2022/07/05 08:12:08;;;;;;;2.50;1.30;;;21.20;51.60;;;;;;5032528;28;20473;-61
2022/07/05 08:14:36;;;;;;;1.90;1.40;;;21.30;51.10;;;;;;5032580;28;20865;-63
2022/07/05 08:17:07;;;;;;;1.83;1.50;;;21.40;50.40;;;;;;5032474;28;20474;-62
2022/07/05 08:22:19;;;;;;;3.73;1.40;;;21.30;49.10;;;;;;5032460;28;20509;-62
2022/07/05 08:24:48;;;;;;;4.13;1.73;;;21.50;48.60;;;;;;5032214;28;20478;-62
2022/07/05 08:27:15;;;;;;;3.70;1.50;;;21.60;48.20;;;;;;5032283;28;20471;-62
2022/07/05 08:29:43;;;;;;;1.97;1.23;;;21.80;47.70;;;;;;5032106;28;20856;-62
2022/07/05 08:32:10;;;;;;;1.70;1.10;;;22.00;47.00;;;;;;5032526;28;20543;-63
2022/07/05 08:34:38;;;;;;;1.87;1.40;;;22.00;46.00;;;;;;5032049;28;20508;-62
2022/07/05 08:37:06;;;;;;;1.10;1.00;;;21.90;45.00;;;;;;5032275;28;20874;-63
2022/07/05 08:39:33;;;;;;;3.23;1.30;;;21.80;44.90;;;;;;5032489;28;20522;-61
2022/07/05 08:42:02;;;;;;;3.03;1.30;;;21.80;44.60;;;;;;5032072;28;20510;-63
2022/07/05 08:44:34;;;;;;;2.80;1.60;;;21.80;44.30;;;;;;5032352;28;20525;-61
2022/07/05 08:47:04;;;;;;;1.43;1.20;;;21.80;44.30;;;;;;5031940;28;20462;-61
2022/07/05 08:49:33;;;;;;;2.10;1.60;;;21.90;44.40;;;;;;5032034;28;20498;-62
2022/07/05 08:52:03;;;;;;;2.87;1.13;;;21.90;44.30;;;;;;5033110;28;20453;-62
2022/07/05 08:54:31;;;;;;;1.90;1.70;;;22.10;44.20;;;;;;5032202;28;20432;-63
2022/07/05 08:56:59;;;;;;;2.03;1.17;;;22.40;43.90;;;;;;5036957;28;20534;-62
2022/07/05 08:59:27;;;;;;;2.23;1.40;;;22.70;43.50;;;;;;5036808;28;20966;-63
2022/07/05 09:01:57;;;;;;;1.97;1.40;;;22.70;43.60;;;;;;5035786;28;20551;-62
2022/07/05 09:04:30;;;;;;;1.77;1.23;;;22.70;43.60;;;;;;5035809;28;20872;-62
2022/07/05 09:06:59;;;;;;;2.73;1.63;;;22.40;43.40;;;;;;5035621;28;20475;-62
2022/07/05 09:09:27;;;;;;;2.50;1.30;;;22.20;43.80;;;;;;5035806;28;20510;-61
2022/07/05 09:11:55;;;;;;;2.10;1.50;;;22.00;44.00;;;;;;5035470;28;20822;-62
2022/07/05 09:14:24;;;;;;;2.93;1.47;;;22.00;44.10;;;;;;5035291;28;20829;-63
2022/07/05 09:16:53;;;;;;;3.57;1.47;;;22.10;43.50;;;;;;5035061;28;21049;-63
2022/07/05 09:19:20;;;;;;;1.70;1.30;;;22.20;43.20;;;;;;5036581;28;20448;-63
2022/07/05 09:21:48;;;;;;;4.97;1.50;;;22.40;43.20;;;;;;5037632;28;20462;-62
2022/07/05 09:24:15;;;;;;;1.73;1.30;;;22.60;43.10;;;;;;5036712;28;20448;-63
2022/07/05 09:26:46;;;;;;;3.43;1.60;;;22.70;42.80;;;;;;5035824;28;20475;-62
2022/07/05 09:29:16;;;;;;;4.47;1.40;;;22.60;42.60;;;;;;5035270;28;20437;-61
2022/07/05 09:31:45;;;;;;;3.07;1.30;;;22.50;42.90;;;;;;5035134;28;20480;-64
2022/07/05 09:34:16;;;;;;;7.97;1.80;;;22.40;42.90;;;;;;5035703;28;20498;-63
2022/07/05 09:36:50;;;;;;;2.50;1.17;;;22.30;42.80;;;;;;5035442;28;20500;-62
2022/07/05 09:39:18;;;;;;;3.93;1.47;;;22.30;42.50;;;;;;5035715;28;20569;-62
2022/07/05 09:41:45;;;;;;;6.30;1.53;;;22.50;42.20;;;;;;5034657;28;20452;-63
2022/07/05 09:44:24;;;;;;;2.13;1.37;;;22.70;41.50;;;;;;5034856;28;20448;-61
2022/07/05 09:47:07;;;;;;;1.60;1.23;;;22.80;40.80;;;;;;5034730;28;20563;-61
2022/07/05 09:49:36;;;;;;;2.60;1.20;;;23.00;40.30;;;;;;5035252;28;20518;-62
2022/07/05 09:52:03;;;;;;;3.90;1.70;;;23.10;39.90;;;;;;5032267;28;20469;-61
2022/07/05 09:54:30;;;;;;;2.73;1.57;;;23.20;39.70;;;;;;5046638;28;20444;-61
2022/07/05 09:56:58;;;;;;;2.40;1.30;;;23.40;39.70;;;;;;5054453;28;20549;-63
2022/07/05 09:59:25;;;;;;;2.97;1.43;;;23.50;39.80;;;;;;5054657;28;20456;-62
2022/07/05 10:01:53;;;;;;;1.97;1.70;;;23.40;39.90;;;;;;5046130;28;20461;-62
2022/07/05 10:04:20;;;;;;;1.80;1.60;;;23.30;40.00;;;;;;5034319;28;20497;-63
2022/07/05 10:06:49;;;;;;;3.60;2.33;;;23.30;40.10;;;;;;5033301;28;20841;-63
2022/07/05 10:09:18;;;;;;;2.67;2.20;;;23.10;40.30;;;;;;5034256;28;20533;-62
2022/07/05 10:11:47;;;;;;;2.37;1.40;;;22.90;40.60;;;;;;5033935;28;20563;-63
2022/07/05 10:14:18;;;;;;;1.60;1.50;;;22.70;40.90;;;;;;5034165;28;20953;-62
2022/07/05 10:16:52;;;;;;;2.20;1.60;;;22.50;41.10;;;;;;5032639;28;20567;-63
2022/07/05 10:19:21;;;;;;;2.27;1.60;;;22.40;40.80;;;;;;5032471;28;20591;-62
2022/07/05 10:21:50;;;;;;;2.60;1.40;;;22.70;40.50;;;;;;5014232;28;20446;-62
2022/07/05 10:24:18;;;;;;;2.10;1.30;;;23.00;39.90;;;;;;5014029;28;20554;-62
2022/07/05 10:26:47;;;;;;;2.33;1.50;;;23.20;39.10;;;;;;5014661;28;20466;-62
2022/07/05 10:29:16;;;;;;;3.90;1.37;;;23.40;38.50;;;;;;5015447;28;20485;-62
2022/07/05 10:31:44;;;;;;;1.87;1.63;;;23.60;38.40;;;;;;5032584;28;20919;-63
2022/07/05 10:34:11;;;;;;;3.70;1.53;;;23.70;38.30;;;;;;5032623;28;20495;-63
2022/07/05 10:36:41;;;;;;;4.33;1.60;;;23.70;38.10;;;;;;5033739;28;20466;-64
2022/07/05 10:39:11;;;;;;;1.63;1.50;;;23.80;38.30;;;;;;5031635;28;20485;-61
2022/07/05 10:41:40;;;;;;;1.50;1.30;;;23.90;37.90;;;;;;5033644;28;20442;-61
2022/07/05 10:44:07;;;;;;;1.53;1.40;;;23.90;37.40;;;;;;5033652;28;20457;-61
2022/07/05 10:46:36;;;;;;;3.60;1.70;;;23.80;37.40;;;;;;5033480;28;20469;-61
2022/07/05 10:49:16;;;;;;;1.90;1.47;;;23.60;37.60;;;;;;5033296;28;21032;-60
2022/07/05 10:51:43;;;;;;;3.10;1.47;;;23.60;37.90;;;;;;5033294;28;21072;-60
2022/07/05 10:54:12;;;;;;;3.20;1.40;;;23.70;38.00;;;;;;5013252;28;20461;-59
2022/07/05 10:56:40;;;;;;;2.27;1.40;;;23.70;37.90;;;;;;5014443;28;20537;-59
2022/07/05 10:59:09;;;;;;;1.77;1.00;;;23.70;37.80;;;;;;5031022;28;20473;-59
2022/07/05 11:01:41;;;;;;;2.13;1.00;;;23.70;37.20;;;;;;5032411;28;20541;-59
2022/07/05 11:04:32;;;;;;;2.23;1.50;;;23.70;37.10;;;;;;5032979;28;21016;-60
2022/07/05 11:06:59;;;;;;;1.73;1.50;;;24.00;37.00;;;;;;5032294;28;20507;-60
2022/07/05 11:09:29;;;;;;;2.40;1.20;;;24.20;36.40;;;;;;5032701;28;20469;-59
2022/07/05 11:12:14;;;;;;;2.53;1.37;;;24.30;36.20;;;;;;5032815;28;20968;-59
2022/07/05 11:14:48;;;;;;;3.73;1.47;;;24.50;36.00;;;;;;5032716;28;20492;-59
2022/07/05 11:17:25;;;;;;;1.83;1.60;;;24.60;35.80;;;;;;5032403;28;20491;-59
2022/07/05 11:20:04;;;;;;;1.30;1.10;;;25.00;35.80;;;;;;5032472;28;20459;-60
2022/07/05 11:22:32;;;;;;;2.70;1.43;;;25.50;35.20;;;;;;5032816;28;20445;-60
2022/07/05 11:25:02;;;;;;;2.13;1.00;;;25.40;34.40;;;;;;5022540;28;20528;-61
2022/07/05 11:27:30;;;;;;;1.07;0.97;;;25.20;34.50;;;;;;5050507;28;20490;-59
2022/07/05 11:29:58;;;;;;;2.93;1.70;;;25.00;34.40;;;;;;5034890;28;20475;-59
2022/07/05 11:32:37;;;;;;;1.13;0.93;;;25.00;34.30;;;;;;5032788;28;20496;-58
2022/07/05 11:35:16;;;;;;;4.73;1.20;;;25.00;34.70;;;;;;5033159;28;20426;-60
2022/07/05 11:38:01;;;;;;;2.00;1.20;;;24.80;35.40;;;;;;5033504;28;20467;-59
2022/07/05 11:40:33;;;;;;;2.20;1.33;;;24.60;35.60;;;;;;5032809;28;20481;-59
2022/07/05 11:43:02;;;;;;;2.20;1.10;;;24.30;36.00;;;;;;5032505;28;20450;-59
2022/07/05 11:45:30;;;;;;;1.30;0.97;;;23.80;36.70;;;;;;5031579;28;20473;-59
2022/07/05 11:47:59;;;;;;;3.83;0.93;;;23.60;37.40;;;;;;5032533;28;20467;-60
2022/07/05 11:50:31;;;;;;;2.57;1.20;;;23.50;37.50;;;;;;5031709;28;20473;-60
2022/07/05 11:52:59;;;;;;;1.50;1.10;;;23.40;37.40;;;;;;5012384;28;20880;-60
2022/07/05 11:55:28;;;;;;;1.27;1.10;;;23.50;37.50;;;;;;5012614;28;20442;-63
2022/07/05 11:57:58;;;;;;;2.33;1.10;;;23.80;37.20;;;;;;5031608;28;20484;-60
2022/07/05 12:00:33;;;;;;;1.83;1.00;;;24.20;36.30;;;;;;5032412;28;20469;-59
2022/07/05 12:03:01;;;;;;;1.30;1.03;;;24.40;35.50;;;;;;5032294;28;20918;-58
2022/07/05 12:05:32;;;;;;;1.53;1.33;;;24.80;35.10;;;;;;5032990;28;20547;-60
2022/07/05 12:08:00;;;;;;;1.97;0.90;;;24.80;34.20;;;;;;5032319;28;20956;-59
2022/07/05 12:13:13;;;;;;;1.93;1.13;;;25.00;34.40;;;;;;5032370;28;20415;-61
2022/07/05 12:15:41;;;;;;;2.33;1.00;;;26.10;33.50;;;;;;5032257;28;20448;-59
2022/07/05 12:18:11;;;;;;;1.70;1.20;;;27.10;32.20;;;;;;5031940;28;20470;-60
2022/07/05 12:20:40;;;;;;;1.27;0.90;;;28.10;30.90;;;;;;5030271;28;20458;-58
2022/07/05 12:23:08;;;;;;;2.47;1.40;;;28.60;30.20;;;;;;5032023;28;20466;-60
2022/07/05 12:25:36;;;;;;;3.43;1.20;;;28.90;29.60;;;;;;5031535;28;20988;-60
2022/07/05 12:28:06;;;;;;;1.67;1.00;;;28.90;29.30;;;;;;5052503;28;20549;-59
2022/07/05 12:30:35;;;;;;;2.03;1.30;;;28.60;29.10;;;;;;5054185;28;20477;-59
2022/07/05 12:33:05;;;;;;;2.67;1.30;;;27.80;29.70;;;;;;5056071;28;20500;-60
2022/07/05 12:35:35;;;;;;;3.03;1.33;;;26.80;30.70;;;;;;5056046;28;20450;-59
2022/07/05 12:38:07;;;;;;;1.30;1.10;;;25.90;32.00;;;;;;5056266;28;20467;-60
2022/07/05 12:40:35;;;;;;;2.13;1.10;;;25.00;33.30;;;;;;5056448;28;20494;-59
2022/07/05 12:43:08;;;;;;;1.23;0.80;;;24.50;34.20;;;;;;5056643;28;20814;-59
2022/07/05 12:45:37;;;;;;;1.57;1.40;;;24.50;34.20;;;;;;5056891;28;20448;-59
2022/07/05 12:48:06;;;;;;;3.30;1.03;;;24.60;33.90;;;;;;5057470;28;20972;-59
2022/07/05 12:50:46;;;;;;;3.40;1.00;;;24.90;33.70;;;;;;5057278;28;20476;-59
2022/07/05 12:58:49;;;;;;;1.83;0.97;;;24.70;34.00;;;;;;5055699;28;20471;-58
2022/07/05 13:01:23;;;;;;;2.03;1.07;;;24.40;34.30;;;;;;5056405;28;20441;-59
2022/07/05 13:04:03;;;;;;;2.83;1.30;;;24.20;34.20;;;;;;5057324;28;20887;-60
2022/07/05 13:06:46;;;;;;;1.80;1.17;;;24.10;34.50;;;;;;5057288;28;20470;-59
2022/07/05 13:09:15;;;;;;;3.00;0.97;;;24.10;34.40;;;;;;5055005;28;20454;-58
2022/07/05 13:11:43;;;;;;;1.20;1.10;;;24.30;34.20;;;;;;5055571;28;20545;-59